Mentone, Texas
Current Conditions -  °F | °C
As of 10:35 AM on Wednesday 22 Oct 2014 (Local Time) from KPEQ Reporting Station
Scattered Clouds Scattered Clouds  
Wind Chill: 66°   Ceiling: Unl
Heat Index: 66°   Visibility: 10mi
Dew Point: 61°   Wind: 7mph
Humidity: 83%   Direction: 120°ESE
Pressure: 30.12"   Gusts: NA
Location:  31.71°N, 103.6°W
Report Text: KPEQ 221535Z AUTO 12006KT 10SM SCT120 19/16 A3012 RMK AO2 P0003 T01910161
Loading
Personal Weather Stations






























Interactive Weather Map
Tropical Storm Tracking
New forecast layout! Learn more

10-Day Weather Forecast

Advertisements
Track Severe Weather on mobile